Time;durP1;ratioP1;P1;durP2;ratioP2;P2;SDS_P1;SDS_P2;PMS_P1;PMS_P2;Temp;Humidity;BMP_temperature;BMP_pressure;BME280_temperature;BME280_humidity;BME280_pressure;Samples;Min_cycle;Max_cycle;Signal;HPM_P1;HPM_P2
2024/01/06 00:01:43;;;;;;;1.63;1.40;;;20.70;99.90;;;;;;5013683;28;20089;-51
2024/01/06 00:04:09;;;;;;;3.10;1.67;;;20.70;99.90;;;;;;5013861;28;20034;-51
2024/01/06 00:06:35;;;;;;;2.88;1.80;;;20.70;99.90;;;;;;5014046;28;20018;-52
2024/01/06 00:09:01;;;;;;;2.45;1.58;;;20.70;99.90;;;;;;5012561;28;20029;-51
2024/01/06 00:11:26;;;;;;;4.47;1.42;;;20.60;99.90;;;;;;5013730;28;20026;-51
2024/01/06 00:13:52;;;;;;;2.22;1.45;;;20.70;99.90;;;;;;5013546;28;20040;-51
2024/01/06 00:16:19;;;;;;;2.45;1.60;;;20.60;99.90;;;;;;5012203;28;20505;-51
2024/01/06 00:18:45;;;;;;;2.50;1.63;;;20.60;99.90;;;;;;5013474;28;20101;-51
2024/01/06 00:21:11;;;;;;;3.35;1.27;;;20.60;99.90;;;;;;5013603;28;20029;-51
2024/01/06 00:23:37;;;;;;;2.50;1.67;;;20.60;99.90;;;;;;5013925;28;20037;-52
2024/01/06 00:26:04;;;;;;;2.08;1.10;;;20.60;99.90;;;;;;5013277;28;20101;-51
2024/01/06 00:28:30;;;;;;;1.77;1.43;;;20.60;99.90;;;;;;5013460;28;20371;-51
2024/01/06 00:30:55;;;;;;;2.80;1.20;;;20.60;99.90;;;;;;5013405;28;20033;-51
2024/01/06 00:33:21;;;;;;;3.45;1.45;;;20.50;99.90;;;;;;5013257;28;20425;-51
2024/01/06 00:35:47;;;;;;;2.25;1.58;;;20.60;99.90;;;;;;5012185;28;20057;-52
2024/01/06 00:38:13;;;;;;;2.22;0.90;;;20.50;99.90;;;;;;5013272;28;20030;-52
2024/01/06 00:40:39;;;;;;;2.20;1.10;;;20.50;99.90;;;;;;5013240;28;20028;-52
2024/01/06 00:43:05;;;;;;;1.42;0.93;;;20.50;99.90;;;;;;5013118;28;20033;-51
2024/01/06 00:45:31;;;;;;;2.17;1.00;;;20.50;99.90;;;;;;5013126;28;20021;-51
2024/01/06 00:47:57;;;;;;;2.08;1.33;;;20.50;99.90;;;;;;5013015;28;20021;-51
2024/01/06 00:50:23;;;;;;;1.98;1.60;;;20.50;99.90;;;;;;5013008;28;20557;-51
2024/01/06 00:52:52;;;;;;;1.73;1.15;;;20.50;99.90;;;;;;5012994;28;20037;-51
2024/01/06 00:55:21;;;;;;;2.22;1.33;;;20.50;99.90;;;;;;5012951;28;20034;-52
2024/01/06 00:57:48;;;;;;;2.00;1.67;;;20.50;99.90;;;;;;5012871;28;20033;-51
2024/01/06 01:00:14;;;;;;;1.77;0.95;;;20.40;99.90;;;;;;5013355;28;20013;-52
2024/01/06 01:02:40;;;;;;;1.98;1.20;;;20.40;99.90;;;;;;5012846;28;20080;-51
2024/01/06 01:05:09;;;;;;;2.30;1.38;;;20.40;99.90;;;;;;5012751;28;20144;-52
2024/01/06 01:07:35;;;;;;;3.95;1.63;;;20.40;99.90;;;;;;5012042;28;20022;-52
2024/01/06 01:10:01;;;;;;;2.40;1.40;;;20.40;99.90;;;;;;5012697;28;20041;-52
2024/01/06 01:12:26;;;;;;;2.17;1.45;;;20.40;99.90;;;;;;5012896;28;20026;-51
2024/01/06 01:14:53;;;;;;;1.35;0.90;;;20.40;99.90;;;;;;5011342;28;20180;-51
2024/01/06 01:17:19;;;;;;;2.88;1.10;;;20.40;99.90;;;;;;5012475;28;20069;-52
2024/01/06 01:19:45;;;;;;;1.63;0.90;;;20.40;99.90;;;;;;5012650;28;20053;-51
2024/01/06 01:22:11;;;;;;;3.13;1.27;;;20.30;99.90;;;;;;5012756;28;20041;-52
2024/01/06 01:24:37;;;;;;;1.92;1.05;;;20.30;99.90;;;;;;5012541;28;20101;-51
2024/01/06 01:27:03;;;;;;;2.47;1.30;;;20.30;99.90;;;;;;5012506;28;20179;-52
2024/01/06 01:29:29;;;;;;;1.10;0.80;;;20.30;99.90;;;;;;5012430;28;20033;-52
2024/01/06 01:31:55;;;;;;;2.15;0.88;;;20.30;99.90;;;;;;5011203;28;20026;-52
2024/01/06 01:34:21;;;;;;;2.10;0.82;;;20.30;99.90;;;;;;5012396;28;20382;-51
2024/01/06 01:36:46;;;;;;;1.98;0.70;;;20.30;99.90;;;;;;5012397;28;20071;-52
2024/01/06 01:39:12;;;;;;;1.27;0.90;;;20.30;99.90;;;;;;5012700;28;20030;-51
2024/01/06 01:41:39;;;;;;;2.83;1.10;;;20.30;99.90;;;;;;5012237;28;20037;-51
2024/01/06 01:44:05;;;;;;;1.53;0.93;;;20.30;99.90;;;;;;5012292;28;20363;-52
2024/01/06 01:46:31;;;;;;;1.77;0.93;;;20.30;99.90;;;;;;5012328;28;20263;-52
2024/01/06 01:48:58;;;;;;;1.30;0.85;;;20.30;99.90;;;;;;5011537;28;20034;-52
2024/01/06 01:51:27;;;;;;;1.73;0.70;;;20.30;99.90;;;;;;5009950;28;20041;-52
2024/01/06 01:53:53;;;;;;;1.13;0.80;;;20.20;99.90;;;;;;4990977;28;20037;-52
2024/01/06 01:56:20;;;;;;;1.23;0.80;;;20.20;99.90;;;;;;4990365;28;20076;-52
2024/01/06 01:58:46;;;;;;;1.52;0.98;;;20.20;99.90;;;;;;4992071;28;20058;-52
2024/01/06 02:01:13;;;;;;;1.50;0.65;;;20.20;99.90;;;;;;4992821;28;20050;-51
2024/01/06 02:03:42;;;;;;;1.65;1.05;;;20.20;99.90;;;;;;4992508;28;20483;-51
2024/01/06 02:06:07;;;;;;;1.17;0.73;;;20.20;99.90;;;;;;4992452;28;20053;-52
2024/01/06 02:08:33;;;;;;;2.38;1.10;;;20.20;99.90;;;;;;4992435;28;20062;-52
2024/01/06 02:10:59;;;;;;;1.30;0.80;;;20.20;99.90;;;;;;4992309;28;20026;-52
2024/01/06 02:13:34;;;;;;;1.52;0.93;;;20.20;99.90;;;;;;4992459;28;20576;-52
2024/01/06 02:15:59;;;;;;;2.22;0.80;;;20.20;99.90;;;;;;4992447;28;20068;-51
2024/01/06 02:18:25;;;;;;;1.40;0.80;;;20.20;99.90;;;;;;4993787;28;20026;-52
2024/01/06 02:20:53;;;;;;;0.85;0.80;;;20.10;99.90;;;;;;4996296;28;20031;-52
2024/01/06 02:23:18;;;;;;;2.63;0.95;;;20.10;99.90;;;;;;4996210;28;20250;-52
2024/01/06 02:25:44;;;;;;;1.60;1.05;;;20.10;99.90;;;;;;4996247;28;20081;-52
2024/01/06 02:28:10;;;;;;;1.58;0.95;;;20.10;99.90;;;;;;5011025;28;20344;-52
2024/01/06 02:30:35;;;;;;;1.63;0.90;;;20.10;99.90;;;;;;4995807;28;20117;-51
2024/01/06 02:33:01;;;;;;;1.63;1.00;;;20.10;99.90;;;;;;4994633;28;20031;-52
2024/01/06 02:35:27;;;;;;;1.70;0.85;;;20.10;99.90;;;;;;4995966;28;20034;-52
2024/01/06 02:37:53;;;;;;;0.93;0.90;;;20.00;99.90;;;;;;4995732;28;20460;-51
2024/01/06 02:40:18;;;;;;;1.60;0.80;;;20.00;99.90;;;;;;5010841;28;20521;-51
2024/01/06 02:42:44;;;;;;;1.27;0.73;;;20.00;99.90;;;;;;4995960;28;20058;-52
2024/01/06 02:45:10;;;;;;;1.30;0.63;;;20.00;99.90;;;;;;4995661;28;20089;-51
2024/01/06 02:47:36;;;;;;;2.80;1.20;;;20.00;99.90;;;;;;4995690;28;20022;-51
2024/01/06 02:50:02;;;;;;;2.47;1.02;;;20.00;99.90;;;;;;4995493;28;20073;-51
2024/01/06 02:52:27;;;;;;;2.10;0.88;;;20.00;99.90;;;;;;4995561;28;20084;-51
2024/01/06 02:54:53;;;;;;;1.30;0.82;;;20.00;99.90;;;;;;4995467;28;20053;-51
2024/01/06 02:57:19;;;;;;;1.42;0.63;;;20.00;99.90;;;;;;4995587;28;20101;-51
2024/01/06 02:59:45;;;;;;;1.38;0.70;;;20.00;99.90;;;;;;4995574;28;20023;-51
2024/01/06 03:02:11;;;;;;;1.13;0.77;;;20.00;99.90;;;;;;5024208;23;20054;-50
2024/01/06 03:04:37;;;;;;;0.88;0.73;;;20.00;99.90;;;;;;5014826;28;20022;-50
2024/01/06 03:07:03;;;;;;;1.20;0.60;;;19.90;99.90;;;;;;5014728;28;20022;-51
2024/01/06 03:09:29;;;;;;;1.23;0.80;;;19.90;99.90;;;;;;5013664;28;20180;-51
2024/01/06 03:11:55;;;;;;;2.55;1.13;;;19.90;99.90;;;;;;5014682;28;20037;-51
2024/01/06 03:14:20;;;;;;;1.60;0.95;;;19.90;99.90;;;;;;5014755;28;20026;-51
2024/01/06 03:16:46;;;;;;;1.13;0.80;;;19.90;99.90;;;;;;5014696;28;20029;-51
2024/01/06 03:19:12;;;;;;;0.70;0.45;;;19.90;99.90;;;;;;5014608;28;20506;-51
2024/01/06 03:21:38;;;;;;;1.58;0.60;;;19.90;99.90;;;;;;5014644;28;20032;-51
2024/01/06 03:24:05;;;;;;;1.85;0.82;;;19.90;99.90;;;;;;5014735;28;20109;-51
2024/01/06 03:26:30;;;;;;;1.33;0.88;;;19.90;99.90;;;;;;5014388;28;20029;-51
2024/01/06 03:28:58;;;;;;;1.60;0.80;;;19.90;99.90;;;;;;5014270;28;20033;-51
2024/01/06 03:31:24;;;;;;;;;;;19.90;99.90;;;;;;5014115;28;20386;-51
2024/01/06 03:33:51;;;;;;;2.00;0.93;;;19.90;99.90;;;;;;5014340;28;19905;-51
2024/01/06 03:36:17;;;;;;;1.48;0.63;;;19.80;99.90;;;;;;5014116;28;20055;-51
2024/01/06 03:38:43;;;;;;;2.08;1.00;;;19.80;99.90;;;;;;5014039;28;20394;-51
2024/01/06 03:41:08;;;;;;;2.47;0.90;;;19.80;99.90;;;;;;5012835;28;20084;-51
2024/01/06 03:43:34;;;;;;;1.38;0.90;;;19.80;99.90;;;;;;5014336;28;20034;-51
2024/01/06 03:46:00;;;;;;;0.95;0.68;;;19.70;99.90;;;;;;5014083;28;20036;-51
2024/01/06 03:48:26;;;;;;;1.98;0.90;;;19.70;99.90;;;;;;5014053;28;20026;-50
2024/01/06 03:50:52;;;;;;;2.15;1.23;;;19.70;99.90;;;;;;5014122;28;20375;-50
2024/01/06 03:53:17;;;;;;;1.30;0.98;;;19.70;99.90;;;;;;5013749;28;20032;-51
2024/01/06 03:55:43;;;;;;;1.30;0.85;;;19.70;99.90;;;;;;5013843;28;20071;-51
2024/01/06 03:58:09;;;;;;;2.13;0.80;;;19.70;99.90;;;;;;5013726;28;20042;-51
2024/01/06 04:00:35;;;;;;;2.92;1.10;;;19.70;99.90;;;;;;5026435;22;20038;-51
2024/01/06 04:03:01;;;;;;;2.97;1.10;;;19.70;99.90;;;;;;5013630;28;20041;-51
2024/01/06 04:05:27;;;;;;;2.45;1.15;;;19.70;99.90;;;;;;5013821;28;20029;-51
2024/01/06 04:07:52;;;;;;;1.30;0.80;;;19.70;99.90;;;;;;5013665;28;20034;-51
2024/01/06 04:10:18;;;;;;;1.60;0.90;;;19.70;99.90;;;;;;5013786;28;20018;-51
2024/01/06 04:12:44;;;;;;;1.73;0.90;;;19.70;99.90;;;;;;5013616;28;20050;-51
2024/01/06 04:15:10;;;;;;;1.80;0.85;;;19.60;99.90;;;;;;5013506;28;20093;-51
2024/01/06 04:17:35;;;;;;;2.70;0.82;;;19.60;99.90;;;;;;5013587;28;20077;-51
2024/01/06 04:20:01;;;;;;;1.13;0.77;;;19.60;99.90;;;;;;5013482;28;20033;-51
2024/01/06 04:22:27;;;;;;;1.65;0.88;;;19.60;99.90;;;;;;5013342;28;20398;-51
2024/01/06 04:24:53;;;;;;;1.83;0.90;;;19.60;99.90;;;;;;5013455;28;20014;-51
2024/01/06 04:27:19;;;;;;;1.02;0.63;;;19.60;99.90;;;;;;5013352;28;20033;-51
2024/01/06 04:29:45;;;;;;;1.70;0.75;;;19.60;99.90;;;;;;5013278;28;20049;-51
2024/01/06 04:32:10;;;;;;;1.92;0.88;;;19.50;99.90;;;;;;5013481;28;20026;-51
2024/01/06 04:34:36;;;;;;;2.97;1.13;;;19.60;99.90;;;;;;5013555;28;20025;-51
2024/01/06 04:37:02;;;;;;;1.42;0.98;;;19.50;99.90;;;;;;5013112;28;20037;-51
2024/01/06 04:39:28;;;;;;;2.53;0.90;;;19.60;99.90;;;;;;5013063;28;20049;-51
2024/01/06 04:41:53;;;;;;;1.90;0.70;;;19.50;99.90;;;;;;5012999;28;20026;-51
2024/01/06 04:44:20;;;;;;;2.88;0.80;;;19.50;99.90;;;;;;5013084;28;20030;-51
2024/01/06 04:46:46;;;;;;;1.90;0.87;;;19.50;99.90;;;;;;5013013;28;20466;-51
2024/01/06 04:49:12;;;;;;;2.08;1.05;;;19.50;99.90;;;;;;5013004;28;20026;-52
2024/01/06 04:51:38;;;;;;;1.35;0.60;;;19.50;99.90;;;;;;5009451;28;20026;-51
2024/01/06 04:54:04;;;;;;;1.58;0.82;;;19.50;99.90;;;;;;4993895;28;20038;-52
2024/01/06 04:56:29;;;;;;;1.73;0.93;;;19.50;99.90;;;;;;4991911;28;20061;-52
2024/01/06 04:58:56;;;;;;;1.83;0.77;;;19.40;99.90;;;;;;4991185;28;20430;-52
2024/01/06 05:01:22;;;;;;;1.52;0.80;;;19.40;99.90;;;;;;4991762;28;20120;-52
2024/01/06 05:03:47;;;;;;;1.20;0.80;;;19.40;99.90;;;;;;4993357;28;20057;-50
2024/01/06 05:06:13;;;;;;;1.23;0.95;;;19.40;99.90;;;;;;4993052;28;20044;-52
2024/01/06 05:08:44;;;;;;;2.28;1.08;;;19.40;99.90;;;;;;4993323;28;20049;-52
2024/01/06 05:11:10;;;;;;;1.40;0.73;;;19.40;99.90;;;;;;4993281;28;20525;-51
2024/01/06 05:13:36;;;;;;;1.15;0.90;;;19.40;99.90;;;;;;4993166;28;20034;-52
2024/01/06 05:16:03;;;;;;;1.42;0.80;;;19.40;99.90;;;;;;4992911;28;20027;-51
2024/01/06 05:18:28;;;;;;;1.23;0.75;;;19.40;99.90;;;;;;4992740;28;20109;-50
2024/01/06 05:20:55;;;;;;;2.20;1.10;;;19.30;99.90;;;;;;4992891;28;20101;-50
2024/01/06 05:23:21;;;;;;;1.85;0.65;;;19.30;99.90;;;;;;4992972;28;20023;-50
2024/01/06 05:25:47;;;;;;;1.75;0.88;;;19.30;99.90;;;;;;4992891;28;20037;-50
2024/01/06 05:28:12;;;;;;;1.35;0.73;;;19.30;99.90;;;;;;4993185;28;20483;-51
2024/01/06 05:30:38;;;;;;;0.88;0.60;;;19.30;99.90;;;;;;4993052;28;20378;-51
2024/01/06 05:33:04;;;;;;;1.20;0.85;;;19.30;99.90;;;;;;4992797;28;20027;-51
2024/01/06 05:35:30;;;;;;;1.60;0.60;;;19.30;99.90;;;;;;4992809;28;20026;-50
2024/01/06 05:37:56;;;;;;;1.45;0.70;;;19.30;99.90;;;;;;4992680;28;20108;-51
2024/01/06 05:40:22;;;;;;;1.48;0.60;;;19.30;99.90;;;;;;4992823;28;20069;-51
2024/01/06 05:42:47;;;;;;;1.25;0.70;;;19.20;99.90;;;;;;4992725;28;20026;-50
2024/01/06 05:45:13;;;;;;;1.73;0.93;;;19.30;99.90;;;;;;4992942;28;20030;-50
2024/01/06 05:47:39;;;;;;;1.30;0.73;;;19.20;99.90;;;;;;4992804;28;20019;-52
2024/01/06 05:50:07;;;;;;;1.40;0.63;;;19.20;99.90;;;;;;4992551;28;20050;-51
2024/01/06 05:52:33;;;;;;;0.68;0.55;;;19.20;99.90;;;;;;4991552;28;20149;-51
2024/01/06 05:54:59;;;;;;;1.70;0.88;;;19.20;99.90;;;;;;4996628;28;20120;-50
2024/01/06 05:57:24;;;;;;;3.35;1.00;;;19.20;99.90;;;;;;4996282;28;20042;-51
2024/01/06 05:59:50;;;;;;;3.95;1.27;;;19.20;99.90;;;;;;4996446;28;20030;-50
2024/01/06 06:02:16;;;;;;;1.98;0.65;;;19.20;99.90;;;;;;4996244;28;20042;-52
2024/01/06 06:04:42;;;;;;;1.65;0.95;;;19.20;99.90;;;;;;4996624;28;20026;-51
2024/01/06 06:07:08;;;;;;;1.30;0.68;;;19.20;99.90;;;;;;5011602;28;20041;-50
2024/01/06 06:09:37;;;;;;;1.63;0.55;;;19.20;99.90;;;;;;4996429;28;20065;-50
2024/01/06 06:12:03;;;;;;;1.55;0.85;;;19.10;99.90;;;;;;4996307;28;20014;-52
2024/01/06 06:14:29;;;;;;;0.90;0.68;;;19.10;99.90;;;;;;4995099;28;20027;-52
2024/01/06 06:16:55;;;;;;;2.28;1.00;;;19.10;99.90;;;;;;4996110;28;20505;-52
2024/01/06 06:19:21;;;;;;;2.35;1.05;;;19.10;99.90;;;;;;4996229;28;20027;-52
2024/01/06 06:21:46;;;;;;;3.15;1.17;;;19.10;99.90;;;;;;4996232;28;20073;-51
2024/01/06 06:24:13;;;;;;;1.67;0.68;;;19.10;99.90;;;;;;4996330;28;20534;-51
2024/01/06 06:26:39;;;;;;;1.10;0.60;;;19.10;99.90;;;;;;4994803;28;20475;-52
2024/01/06 06:29:05;;;;;;;1.58;0.85;;;19.10;99.90;;;;;;4995940;28;20109;-53
2024/01/06 06:31:30;;;;;;;2.03;1.08;;;19.10;99.90;;;;;;4995817;28;20022;-51
2024/01/06 06:33:56;;;;;;;1.25;0.75;;;19.10;99.90;;;;;;4995932;28;20494;-52
2024/01/06 06:36:22;;;;;;;2.58;1.48;;;19.10;99.90;;;;;;4994489;28;20147;-51
2024/01/06 06:38:48;;;;;;;1.13;0.82;;;19.10;99.90;;;;;;4994598;28;20030;-51
2024/01/06 06:41:13;;;;;;;2.25;0.80;;;19.00;99.90;;;;;;4994690;28;20108;-51
2024/01/06 06:43:39;;;;;;;1.25;0.73;;;19.00;99.90;;;;;;4995879;28;20030;-50
2024/01/06 06:46:05;;;;;;;1.10;0.80;;;19.00;99.90;;;;;;4994508;28;20503;-50
2024/01/06 06:48:31;;;;;;;1.23;0.50;;;19.00;99.90;;;;;;4995761;28;20427;-51
2024/01/06 06:50:56;;;;;;;1.00;0.65;;;19.00;99.90;;;;;;4995492;28;20549;-50
2024/01/06 06:53:22;;;;;;;1.70;1.00;;;19.00;99.90;;;;;;4994306;28;20036;-48
2024/01/06 06:55:48;;;;;;;2.10;0.75;;;19.00;99.90;;;;;;4995479;28;20023;-48
2024/01/06 06:58:14;;;;;;;2.20;1.00;;;19.00;99.90;;;;;;4995652;28;20594;-48
2024/01/06 07:00:39;;;;;;;1.70;0.80;;;19.00;99.90;;;;;;4995102;28;20023;-49
2024/01/06 07:03:05;;;;;;;1.80;0.93;;;19.00;99.90;;;;;;4995455;28;20102;-48
2024/01/06 07:05:31;;;;;;;1.48;0.70;;;19.00;99.90;;;;;;4994072;28;20026;-50
2024/01/06 07:07:59;;;;;;;1.85;0.90;;;18.90;99.90;;;;;;4995224;28;20525;-49
2024/01/06 07:10:25;;;;;;;2.60;0.70;;;18.90;99.90;;;;;;4995093;28;20023;-49
2024/01/06 07:12:51;;;;;;;1.50;0.77;;;19.00;99.90;;;;;;4994142;28;20030;-49
2024/01/06 07:15:17;;;;;;;1.58;0.70;;;19.00;99.90;;;;;;4995407;28;20502;-48
2024/01/06 07:17:43;;;;;;;1.65;0.60;;;18.90;99.90;;;;;;4995063;28;20039;-49
2024/01/06 07:20:09;;;;;;;1.33;0.82;;;18.90;99.90;;;;;;4995095;28;20019;-48
2024/01/06 07:22:35;;;;;;;4.13;1.10;;;18.90;99.90;;;;;;4994979;28;20026;-48
2024/01/06 07:25:01;;;;;;;2.25;0.88;;;18.90;99.90;;;;;;4995110;28;20015;-48
2024/01/06 07:27:27;;;;;;;3.13;1.08;;;18.90;99.90;;;;;;4994920;28;20041;-48
2024/01/06 07:29:53;;;;;;;1.00;0.60;;;18.90;99.90;;;;;;4994789;28;20027;-49
2024/01/06 07:32:19;;;;;;;2.08;0.85;;;18.90;99.90;;;;;;4995040;28;20018;-49
2024/01/06 07:34:45;;;;;;;1.77;0.73;;;18.90;99.90;;;;;;4995066;28;20037;-49
2024/01/06 07:37:10;;;;;;;1.17;0.52;;;18.90;99.90;;;;;;4994691;28;20044;-48
2024/01/06 07:39:36;;;;;;;1.90;0.88;;;18.90;99.90;;;;;;4994570;28;20487;-48
2024/01/06 07:42:02;;;;;;;4.63;0.93;;;18.90;99.90;;;;;;4994665;28;20022;-48
2024/01/06 07:44:28;;;;;;;3.45;0.90;;;18.90;99.90;;;;;;4994644;28;20066;-49
2024/01/06 07:46:54;;;;;;;1.98;0.93;;;18.90;99.90;;;;;;4994725;28;20571;-49
2024/01/06 07:49:20;;;;;;;2.38;0.90;;;18.90;99.90;;;;;;4994709;28;20030;-49
2024/01/06 07:51:46;;;;;;;2.38;0.82;;;18.90;99.90;;;;;;4994747;28;20033;-49
2024/01/06 07:54:11;;;;;;;2.25;0.70;;;18.90;99.90;;;;;;4993323;28;20100;-49
2024/01/06 07:56:38;;;;;;;2.45;0.80;;;18.90;99.90;;;;;;4994139;28;20046;-48
2024/01/06 07:59:04;;;;;;;1.45;0.60;;;18.90;99.90;;;;;;4994812;28;20022;-49
2024/01/06 08:01:31;;;;;;;1.33;0.82;;;18.90;99.90;;;;;;4994056;28;20084;-48
2024/01/06 08:03:57;;;;;;;1.02;0.70;;;19.00;99.90;;;;;;4994301;28;20026;-49
2024/01/06 08:06:23;;;;;;;1.40;0.60;;;19.00;99.90;;;;;;4994170;28;20467;-49
2024/01/06 08:08:49;;;;;;;1.77;0.75;;;19.00;99.90;;;;;;4993111;28;20106;-49
2024/01/06 08:11:14;;;;;;;4.30;0.85;;;19.00;99.90;;;;;;4994203;28;20030;-49
2024/01/06 08:13:41;;;;;;;2.88;0.90;;;19.10;99.90;;;;;;4993986;28;20069;-48
2024/01/06 08:16:06;;;;;;;1.25;0.90;;;19.10;99.90;;;;;;4993557;28;20466;-50
2024/01/06 08:18:32;;;;;;;1.95;1.00;;;19.10;99.90;;;;;;4994058;28;20027;-48
2024/01/06 08:20:58;;;;;;;1.50;0.70;;;19.20;99.90;;;;;;4993797;28;20022;-48
2024/01/06 08:23:24;;;;;;;2.70;1.00;;;19.20;99.90;;;;;;4993692;28;20060;-49
2024/01/06 08:25:50;;;;;;;2.42;0.80;;;19.20;99.90;;;;;;4993913;28;20030;-48
2024/01/06 08:28:16;;;;;;;2.00;1.00;;;19.30;99.90;;;;;;4993677;28;20408;-49
2024/01/06 08:30:42;;;;;;;1.80;0.80;;;19.30;99.90;;;;;;4993613;28;20030;-47
2024/01/06 08:33:08;;;;;;;1.80;1.02;;;19.30;99.90;;;;;;4993558;28;20018;-48
2024/01/06 08:35:35;;;;;;;1.40;0.93;;;19.40;99.90;;;;;;4993591;28;20034;-48
2024/01/06 08:38:01;;;;;;;2.55;1.15;;;19.40;99.90;;;;;;4993638;28;20060;-48
2024/01/06 08:40:27;;;;;;;1.63;0.80;;;19.40;99.90;;;;;;4993559;28;20414;-49
2024/01/06 08:42:53;;;;;;;1.55;1.00;;;19.50;99.90;;;;;;4993658;28;20053;-48
2024/01/06 08:45:18;;;;;;;2.72;1.00;;;19.50;99.90;;;;;;4992348;28;20026;-48
2024/01/06 08:47:44;;;;;;;3.08;1.27;;;19.60;99.90;;;;;;4992279;28;20156;-49
2024/01/06 08:50:10;;;;;;;1.70;1.13;;;19.50;99.90;;;;;;4992151;28;20081;-49
2024/01/06 08:52:36;;;;;;;2.47;1.40;;;19.60;99.90;;;;;;4993376;28;20023;-49
2024/01/06 08:55:02;;;;;;;1.92;1.20;;;19.60;99.90;;;;;;4993297;28;20018;-49
2024/01/06 08:57:28;;;;;;;2.15;1.05;;;19.70;99.90;;;;;;4993037;28;20034;-48
2024/01/06 08:59:53;;;;;;;2.65;1.52;;;19.70;99.90;;;;;;4992096;28;20030;-49
2024/01/06 09:02:19;;;;;;;2.25;1.15;;;19.70;99.90;;;;;;4992141;28;20050;-49
2024/01/06 09:04:45;;;;;;;1.63;1.10;;;19.80;99.90;;;;;;4993090;28;20061;-49
2024/01/06 09:07:13;;;;;;;1.33;1.08;;;19.80;99.90;;;;;;4993523;28;20077;-49
2024/01/06 09:09:39;;;;;;;2.30;1.50;;;19.80;99.90;;;;;;4991877;28;20054;-49
2024/01/06 09:12:05;;;;;;;1.98;1.17;;;19.80;99.90;;;;;;4992991;28;20026;-49
2024/01/06 09:14:31;;;;;;;3.13;1.40;;;19.90;99.90;;;;;;4993104;28;20109;-51
2024/01/06 09:16:57;;;;;;;2.78;1.75;;;19.90;99.90;;;;;;4991756;28;20129;-49
2024/01/06 09:19:22;;;;;;;1.95;1.38;;;19.90;99.90;;;;;;4993092;28;20035;-49
2024/01/06 09:21:48;;;;;;;2.72;1.10;;;19.90;99.90;;;;;;4991645;28;20022;-48
2024/01/06 09:24:14;;;;;;;4.80;1.40;;;20.00;99.90;;;;;;4992896;28;20479;-48
2024/01/06 09:26:40;;;;;;;3.08;1.73;;;20.00;99.90;;;;;;5008051;28;20030;-49
2024/01/06 09:29:05;;;;;;;3.20;1.55;;;20.00;99.90;;;;;;4992176;28;20114;-48
2024/01/06 09:31:31;;;;;;;3.35;1.48;;;20.10;99.90;;;;;;4992875;28;20029;-48
2024/01/06 09:34:03;;;;;;;2.28;1.20;;;20.10;99.90;;;;;;4992745;28;20542;-48
2024/01/06 09:36:31;;;;;;;4.68;1.80;;;20.10;99.90;;;;;;4992664;28;20077;-48
2024/01/06 09:38:57;;;;;;;3.20;1.48;;;20.20;99.90;;;;;;4992731;28;20053;-48
2024/01/06 09:41:24;;;;;;;3.80;2.28;;;20.20;99.90;;;;;;4992939;28;20475;-48
2024/01/06 09:43:50;;;;;;;2.80;1.63;;;20.20;99.90;;;;;;4992770;28;20105;-49
2024/01/06 09:46:29;;;;;;;2.15;1.40;;;20.30;99.90;;;;;;4992808;28;20061;-49
2024/01/06 09:48:57;;;;;;;3.40;1.45;;;20.30;99.90;;;;;;5007849;28;20554;-49
2024/01/06 09:51:23;;;;;;;2.47;1.40;;;20.30;99.90;;;;;;4992964;28;20061;-50
2024/01/06 09:54:00;;;;;;;2.97;1.30;;;20.40;99.90;;;;;;4992556;28;20030;-49
2024/01/06 09:56:27;;;;;;;4.35;2.10;;;20.40;99.90;;;;;;4991570;28;20023;-50
2024/01/06 09:58:54;;;;;;;2.92;1.63;;;20.40;99.90;;;;;;4992783;28;20466;-50
2024/01/06 10:01:20;;;;;;;4.88;1.65;;;20.40;99.90;;;;;;4992367;28;20479;-49
2024/01/06 10:03:46;;;;;;;1.67;1.25;;;20.50;99.90;;;;;;4992468;28;20054;-49
2024/01/06 10:06:14;;;;;;;1.92;1.30;;;20.50;99.90;;;;;;4992541;28;20026;-48
2024/01/06 10:08:42;;;;;;;;;;;20.50;99.90;;;;;;4992871;28;20027;-48
2024/01/06 10:11:09;;;;;;;2.78;1.77;;;20.60;99.90;;;;;;4992542;28;19906;-49
2024/01/06 10:13:35;;;;;;;3.08;1.70;;;20.60;99.90;;;;;;4992491;28;20113;-49
2024/01/06 10:16:01;;;;;;;2.00;1.40;;;20.60;99.90;;;;;;4992392;28;20145;-49
2024/01/06 10:18:29;;;;;;;3.58;1.40;;;20.70;99.90;;;;;;4992431;28;20129;-49
2024/01/06 10:20:56;;;;;;;2.45;1.48;;;20.70;99.90;;;;;;4992738;28;20022;-49
2024/01/06 10:23:27;;;;;;;2.10;1.17;;;20.70;99.90;;;;;;4992334;28;20073;-50
2024/01/06 10:25:56;;;;;;;3.05;1.65;;;20.70;99.90;;;;;;4992463;28;20049;-48
2024/01/06 10:28:25;;;;;;;2.17;1.33;;;20.80;99.90;;;;;;4992366;28;20029;-49
2024/01/06 10:30:55;;;;;;;3.03;1.55;;;20.80;99.90;;;;;;4992361;28;20027;-49
2024/01/06 10:33:25;;;;;;;3.92;1.83;;;20.80;99.90;;;;;;4992295;28;20089;-48
2024/01/06 10:35:53;;;;;;;3.03;1.20;;;20.90;99.90;;;;;;4992365;28;20097;-49
2024/01/06 10:38:19;;;;;;;3.88;1.65;;;20.90;99.90;;;;;;4992204;28;20034;-49
2024/01/06 10:41:07;;;;;;;3.13;1.65;;;20.90;99.90;;;;;;4995540;28;20098;-48
2024/01/06 10:43:37;;;;;;;;;;;20.90;99.90;;;;;;4996166;28;20030;-49
2024/01/06 10:46:04;;;;;;;2.28;1.65;;;21.00;99.90;;;;;;4995855;28;19906;-49
2024/01/06 10:48:35;;;;;;;2.00;1.20;;;21.00;99.90;;;;;;4994467;28;20029;-49
2024/01/06 10:51:07;;;;;;;3.05;1.30;;;21.00;99.90;;;;;;4995762;28;20077;-49
2024/01/06 10:53:40;;;;;;;2.05;1.50;;;21.00;99.90;;;;;;4995707;28;20026;-49
2024/01/06 10:56:10;;;;;;;3.15;1.27;;;21.00;99.90;;;;;;4995423;28;20093;-48
2024/01/06 10:58:46;;;;;;;2.85;1.60;;;21.10;99.90;;;;;;4994368;28;20106;-49
2024/01/06 11:01:12;;;;;;;2.38;1.45;;;21.10;99.90;;;;;;4995389;28;20406;-48
2024/01/06 11:03:39;;;;;;;2.85;1.42;;;21.10;99.90;;;;;;4995369;28;20037;-47
2024/01/06 11:06:11;;;;;;;4.20;1.47;;;21.20;99.90;;;;;;4995374;28;20034;-49
2024/01/06 11:08:49;;;;;;;2.50;1.17;;;21.20;99.90;;;;;;4995237;28;20356;-48
2024/01/06 11:11:19;;;;;;;2.75;1.27;;;21.30;99.90;;;;;;4995556;28;20054;-50
2024/01/06 11:13:47;;;;;;;2.28;1.15;;;21.30;99.90;;;;;;4995335;28;20026;-49
2024/01/06 11:16:34;;;;;;;2.63;1.45;;;21.40;99.90;;;;;;4995296;28;20523;-49
2024/01/06 11:19:00;;;;;;;1.63;1.30;;;21.40;99.90;;;;;;4995374;28;20562;-49
2024/01/06 11:21:26;;;;;;;1.98;1.42;;;21.50;99.90;;;;;;4995496;28;20105;-49
2024/01/06 11:24:09;;;;;;;4.47;1.58;;;21.50;99.90;;;;;;4995029;28;20045;-49
2024/01/06 11:26:40;;;;;;;4.00;1.95;;;21.60;99.90;;;;;;4995154;28;20102;-49
2024/01/06 11:29:07;;;;;;;2.88;1.50;;;21.60;99.90;;;;;;4994906;28;20441;-49
2024/01/06 11:31:34;;;;;;;2.03;1.40;;;21.60;99.90;;;;;;4994838;28;20368;-51
2024/01/06 11:34:18;;;;;;;3.47;1.55;;;21.60;99.90;;;;;;4994976;28;20027;-49
2024/01/06 11:36:45;;;;;;;2.60;1.30;;;21.60;99.90;;;;;;4994736;28;20127;-48
2024/01/06 11:39:38;;;;;;;2.72;1.73;;;21.70;99.90;;;;;;4994750;28;20030;-50
2024/01/06 11:42:04;;;;;;;2.22;1.33;;;21.60;99.90;;;;;;4994611;28;20101;-49
2024/01/06 11:44:34;;;;;;;5.90;1.33;;;21.70;99.90;;;;;;4993517;28;20057;-49
2024/01/06 11:47:00;;;;;;;2.95;1.50;;;21.70;99.90;;;;;;4994744;28;20037;-50
2024/01/06 11:49:29;;;;;;;2.33;1.25;;;21.70;99.90;;;;;;4994569;28;20444;-49
2024/01/06 11:51:57;;;;;;;4.20;1.30;;;21.70;99.90;;;;;;5008786;28;20027;-50
2024/01/06 11:54:22;;;;;;;2.47;1.30;;;21.70;99.90;;;;;;4994383;28;20022;-50
2024/01/06 11:56:49;;;;;;;1.95;1.58;;;21.60;99.90;;;;;;4994373;28;20468;-49
2024/01/06 11:59:15;;;;;;;2.58;1.50;;;21.70;99.90;;;;;;4994342;28;20113;-49
2024/01/06 12:01:41;;;;;;;3.88;1.50;;;21.70;99.90;;;;;;4994237;28;20053;-49
2024/01/06 12:04:07;;;;;;;3.75;1.30;;;21.70;99.90;;;;;;4993221;28;20391;-49
2024/01/06 12:06:33;;;;;;;2.33;1.60;;;21.60;99.90;;;;;;4994411;28;20440;-48
2024/01/06 12:09:07;;;;;;;2.92;1.42;;;21.60;99.90;;;;;;5009515;28;20022;-48
2024/01/06 12:11:33;;;;;;;2.10;1.65;;;21.60;99.90;;;;;;4994412;28;20033;-49
2024/01/06 12:13:59;;;;;;;4.72;1.40;;;21.60;99.90;;;;;;4994168;28;20383;-48
2024/01/06 12:16:28;;;;;;;2.60;1.27;;;21.60;99.90;;;;;;4993949;28;20045;-48
2024/01/06 12:18:59;;;;;;;4.30;1.20;;;21.60;99.90;;;;;;4992658;28;20022;-50
2024/01/06 12:21:25;;;;;;;4.03;1.67;;;21.60;99.90;;;;;;4992646;28;20081;-48
2024/01/06 12:23:51;;;;;;;3.33;1.70;;;21.60;99.90;;;;;;4993873;28;20419;-49
2024/01/06 12:26:17;;;;;;;3.55;1.63;;;21.60;99.90;;;;;;4993982;28;20034;-49
2024/01/06 12:28:48;;;;;;;5.68;1.70;;;21.60;99.90;;;;;;4992561;28;20030;-49
2024/01/06 12:31:15;;;;;;;3.08;1.60;;;21.60;99.90;;;;;;4993586;28;20540;-50
2024/01/06 12:33:41;;;;;;;2.25;1.50;;;21.60;99.90;;;;;;4993699;28;20036;-49
2024/01/06 12:36:13;;;;;;;3.45;1.50;;;21.60;99.90;;;;;;4993594;28;20022;-48
2024/01/06 12:38:42;;;;;;;5.50;2.03;;;21.70;99.90;;;;;;4993532;28;20034;-48
2024/01/06 12:41:08;;;;;;;2.75;1.30;;;21.60;99.90;;;;;;4993590;28;20080;-49
2024/01/06 12:43:33;;;;;;;3.22;1.75;;;21.60;99.90;;;;;;4993765;28;20105;-50
2024/01/06 12:45:59;;;;;;;5.00;1.90;;;21.60;99.90;;;;;;4993549;28;20149;-49